createdAt,value
2023-01-30T00:00:30.239Z,26.73
2023-01-30T00:01:38.413Z,29.73
2023-01-30T00:02:44.180Z,32.67
2023-01-30T00:03:51.230Z,33.25
2023-01-30T00:04:57.858Z,32.65
2023-01-30T00:06:05.142Z,28.17
2023-01-30T00:07:13.929Z,29.20
2023-01-30T00:08:20.662Z,30.33
2023-01-30T00:09:26.651Z,30.00
2023-01-30T00:10:32.842Z,32.75
2023-01-30T00:11:43.888Z,29.70
2023-01-30T00:12:48.739Z,32.15
2023-01-30T00:14:00.819Z,28.30
2023-01-30T00:15:16.378Z,34.40
2023-01-30T00:16:26.458Z,33.58
2023-01-30T00:17:35.496Z,30.33
2023-01-30T00:18:43.454Z,29.10
2023-01-30T00:19:51.056Z,33.28
2023-01-30T00:20:57.787Z,31.08
2023-01-30T00:23:00.492Z,33.20
2023-01-30T00:26:24.687Z,31.95
2023-01-30T00:27:58.162Z,31.75
2023-01-30T00:30:03.059Z,34.72
2023-01-30T00:31:23.316Z,30.00
2023-01-30T00:33:22.405Z,33.28
2023-01-30T00:36:33.484Z,31.45
2023-01-30T00:37:51.791Z,33.33
2023-01-30T00:40:59.389Z,28.38
2023-01-30T00:42:39.653Z,33.55
2023-01-30T00:44:04.211Z,28.02
2023-01-30T00:45:44.239Z,33.50
2023-01-30T00:47:27.528Z,32.17
2023-01-30T00:49:06.207Z,31.90
2023-01-30T00:50:48.403Z,31.98
2023-01-30T00:52:22.708Z,33.70
2023-01-30T00:53:53.771Z,34.60
2023-01-30T00:56:53.091Z,29.35
2023-01-30T00:58:50.012Z,29.70
2023-01-30T01:00:30.317Z,34.83
2023-01-30T01:02:31.241Z,30.45
2023-01-30T01:04:05.797Z,32.28
2023-01-30T01:05:35.842Z,31.88
2023-01-30T01:07:11.383Z,33.00
2023-01-30T01:08:42.551Z,31.42
2023-01-30T01:13:53.474Z,31.52
2023-01-30T01:16:08.059Z,33.70
2023-01-30T01:18:19.493Z,28.25
2023-01-30T01:22:24.515Z,31.25
2023-01-30T01:24:37.678Z,34.10
2023-01-30T01:26:53.999Z,31.63
2023-01-30T01:34:03.402Z,33.90
2023-01-30T01:38:19.539Z,30.63
2023-01-30T01:40:37.238Z,32.17
2023-01-30T01:43:52.181Z,31.90
2023-01-30T01:49:14.255Z,31.50
2023-01-30T01:52:22.601Z,32.58
2023-01-30T01:55:55.609Z,35.13
2023-01-30T01:58:12.115Z,32.60
2023-01-30T02:00:46.185Z,35.10
2023-01-30T02:02:04.027Z,30.25
2023-01-30T02:05:26.128Z,29.33
2023-01-30T02:06:55.707Z,28.27
2023-01-30T02:08:27.932Z,34.30
2023-01-30T02:09:53.617Z,33.67
2023-01-30T02:11:37.160Z,32.83
2023-01-30T02:13:35.869Z,30.58
2023-01-30T02:15:25.845Z,33.25
2023-01-30T02:17:29.653Z,41.25
2023-01-30T02:18:55.766Z,35.35
2023-01-30T02:23:15.658Z,33.97
2023-01-30T02:27:55.039Z,34.03
2023-01-30T02:32:17.658Z,37.00
2023-01-30T02:34:24.123Z,29.13
2023-01-30T02:36:56.269Z,33.15
2023-01-30T02:38:41.271Z,29.80
2023-01-30T02:41:16.863Z,32.70
2023-01-30T02:45:19.374Z,27.05
2023-01-30T02:46:59.006Z,38.42
2023-01-30T02:48:51.414Z,35.10
2023-01-30T02:50:38.165Z,38.78
2023-01-30T02:52:18.405Z,36.05
2023-01-30T02:53:59.982Z,32.35
2023-01-30T02:56:01.696Z,32.28
2023-01-30T02:57:32.768Z,34.80
2023-01-30T02:59:20.196Z,36.53
2023-01-30T03:01:40.960Z,32.78
2023-01-30T03:03:42.643Z,33.70
2023-01-30T03:11:58.972Z,31.30
2023-01-30T03:13:27.914Z,34.67
2023-01-30T03:15:13.361Z,37.83
2023-01-30T03:16:40.377Z,33.53
2023-01-30T03:18:08.702Z,32.55
2023-01-30T03:19:27.313Z,37.58
2023-01-30T03:20:44.289Z,33.65
2023-01-30T03:23:37.885Z,32.10
2023-01-30T03:24:51.161Z,37.03
2023-01-30T03:26:15.871Z,32.45
2023-01-30T03:31:10.737Z,33.88
2023-01-30T03:32:22.204Z,38.75
2023-01-30T03:33:39.639Z,37.67
2023-01-30T03:35:10.419Z,36.85
2023-01-30T03:37:08.505Z,36.75
2023-01-30T03:38:47.736Z,37.08
2023-01-30T03:40:33.950Z,32.47
2023-01-30T03:41:58.061Z,34.42
2023-01-30T03:43:37.325Z,36.95
2023-01-30T03:44:58.748Z,35.15
2023-01-30T03:46:12.202Z,31.52
2023-01-30T03:47:30.243Z,36.58
2023-01-30T03:48:40.143Z,33.10
2023-01-30T03:50:04.293Z,39.15
2023-01-30T03:51:47.431Z,37.70
2023-01-30T03:55:48.676Z,36.03
2023-01-30T04:00:00.169Z,32.15
2023-01-30T04:01:09.913Z,33.55
2023-01-30T04:02:55.739Z,33.25
2023-01-30T04:04:27.920Z,32.15
2023-01-30T04:07:35.469Z,31.52
2023-01-30T04:09:08.609Z,32.10
2023-01-30T04:10:41.050Z,34.95
2023-01-30T04:17:08.544Z,34.92
2023-01-30T04:20:59.052Z,37.15
2023-01-30T04:22:56.459Z,39.08
2023-01-30T04:26:51.564Z,34.17
2023-01-30T04:28:31.156Z,35.17
2023-01-30T04:30:10.078Z,37.10
2023-01-30T04:31:40.874Z,41.88
2023-01-30T04:34:01.112Z,37.38
2023-01-30T04:35:49.247Z,45.08
2023-01-30T04:37:44.602Z,38.03
2023-01-30T04:39:40.053Z,40.40
2023-01-30T04:41:40.384Z,34.60
2023-01-30T04:43:31.858Z,40.60
2023-01-30T04:49:08.863Z,37.10
2023-01-30T04:53:44.424Z,37.15
2023-01-30T04:55:38.721Z,39.22
2023-01-30T04:57:24.121Z,32.22
2023-01-30T04:58:59.467Z,34.90
2023-01-30T05:00:40.014Z,33.55
2023-01-30T05:02:14.145Z,31.98
2023-01-30T05:03:45.634Z,30.50
2023-01-30T05:05:16.175Z,36.00
2023-01-30T05:07:08.611Z,32.15
2023-01-30T05:08:41.849Z,34.17
2023-01-30T05:10:24.526Z,34.45
2023-01-30T05:12:07.619Z,32.30
2023-01-30T05:13:25.312Z,32.30
2023-01-30T05:14:47.061Z,33.60
2023-01-30T05:15:57.605Z,33.20
2023-01-30T05:19:26.156Z,35.42
2023-01-30T05:20:36.078Z,34.65
2023-01-30T05:21:54.625Z,33.28
2023-01-30T05:23:32.668Z,33.38
2023-01-30T05:24:43.502Z,31.30
2023-01-30T05:29:01.761Z,31.40
2023-01-30T05:30:52.228Z,31.23
2023-01-30T05:33:00.859Z,36.45
2023-01-30T05:34:38.168Z,31.33
2023-01-30T05:38:01.054Z,32.13
2023-01-30T05:40:27.181Z,30.38
2023-01-30T05:42:24.713Z,30.92
2023-01-30T05:46:46.779Z,30.90
2023-01-30T05:48:52.865Z,31.48
2023-01-30T05:54:51.938Z,29.70
2023-01-30T05:56:41.438Z,30.60
2023-01-30T05:58:20.681Z,28.60
2023-01-30T05:59:54.760Z,27.60
2023-01-30T06:02:03.650Z,31.60
2023-01-30T06:05:48.393Z,25.88
2023-01-30T06:07:13.203Z,27.30
2023-01-30T06:08:38.044Z,30.35
2023-01-30T06:16:55.724Z,25.60
2023-01-30T06:18:47.456Z,29.38
2023-01-30T06:20:58.245Z,26.80
2023-01-30T06:22:28.584Z,29.30
2023-01-30T06:26:37.546Z,25.13
2023-01-30T06:34:04.815Z,28.75
2023-01-30T06:35:31.006Z,32.55
2023-01-30T06:37:34.971Z,27.05
2023-01-30T06:38:47.290Z,28.55
2023-01-30T06:40:15.445Z,22.70
2023-01-30T06:42:10.845Z,25.40
2023-01-30T06:43:57.056Z,27.33
2023-01-30T06:45:43.145Z,25.48
2023-01-30T06:46:54.304Z,27.52
2023-01-30T06:50:33.947Z,27.77
2023-01-30T06:52:14.008Z,25.25
2023-01-30T06:55:28.825Z,37.92
2023-01-30T06:56:38.869Z,28.90
2023-01-30T06:57:51.022Z,31.85
2023-01-30T06:59:08.640Z,29.63
2023-01-30T07:00:20.990Z,28.25
2023-01-30T07:02:12.459Z,27.23
2023-01-30T07:04:28.891Z,28.80
2023-01-30T07:06:41.211Z,25.27
2023-01-30T07:08:25.054Z,26.58
2023-01-30T07:10:24.551Z,26.08
2023-01-30T07:12:22.469Z,22.92
2023-01-30T07:13:43.104Z,21.45
2023-01-30T07:15:29.466Z,22.80
2023-01-30T07:16:55.159Z,21.50
2023-01-30T07:18:46.648Z,22.15
2023-01-30T07:20:14.043Z,26.48
2023-01-30T07:21:44.381Z,22.85
2023-01-30T07:28:42.307Z,21.27
2023-01-30T07:30:24.038Z,20.10
2023-01-30T07:32:09.116Z,22.10
2023-01-30T07:33:49.147Z,23.27
2023-01-30T07:35:53.225Z,20.85
2023-01-30T07:37:31.281Z,20.27
2023-01-30T07:39:21.005Z,24.27
2023-01-30T07:41:11.910Z,21.30
2023-01-30T07:43:18.014Z,19.45
2023-01-30T07:44:49.828Z,20.92
2023-01-30T07:46:32.904Z,18.15
2023-01-30T07:48:00.057Z,18.33
2023-01-30T07:49:13.241Z,23.88
2023-01-30T07:50:17.121Z,21.17
2023-01-30T07:51:20.479Z,18.70
2023-01-30T07:52:25.106Z,20.75
2023-01-30T07:53:32.159Z,22.02
2023-01-30T07:54:35.418Z,19.88
2023-01-30T07:55:44.012Z,22.63
2023-01-30T07:56:48.455Z,19.35
2023-01-30T07:58:00.321Z,18.88
2023-01-30T07:59:06.201Z,20.73
2023-01-30T08:00:14.375Z,19.02
2023-01-30T08:01:32.524Z,19.52
2023-01-30T08:02:41.473Z,20.35
2023-01-30T08:03:58.805Z,20.27
2023-01-30T08:05:15.504Z,20.23
2023-01-30T08:06:29.867Z,20.25
2023-01-30T08:09:10.051Z,20.55
2023-01-30T08:10:17.583Z,18.08
2023-01-30T08:11:24.338Z,15.63
2023-01-30T08:12:32.756Z,19.20
2023-01-30T08:13:41.759Z,17.42
2023-01-30T08:14:49.104Z,22.98
2023-01-30T08:16:00.421Z,18.67
2023-01-30T08:17:18.484Z,16.90
2023-01-30T08:18:34.725Z,16.80
2023-01-30T08:19:42.958Z,17.42
2023-01-30T08:20:51.528Z,18.98
2023-01-30T08:23:39.992Z,17.67
2023-01-30T08:24:53.579Z,16.85
2023-01-30T08:26:06.726Z,17.33
2023-01-30T08:27:17.455Z,18.35
2023-01-30T08:28:20.601Z,20.27
2023-01-30T08:29:27.576Z,19.65
2023-01-30T08:30:35.325Z,20.40
2023-01-30T08:31:48.201Z,19.60
2023-01-30T08:32:51.849Z,16.25
2023-01-30T08:34:12.333Z,19.55
2023-01-30T08:35:19.580Z,16.88
2023-01-30T08:36:23.718Z,16.70
2023-01-30T08:37:53.766Z,17.25
2023-01-30T08:39:05.641Z,18.83
2023-01-30T08:40:15.459Z,16.15
2023-01-30T08:41:23.274Z,15.75
2023-01-30T08:42:27.697Z,16.52
2023-01-30T08:43:31.185Z,17.08
2023-01-30T08:44:37.502Z,16.45
2023-01-30T08:45:43.956Z,15.70
2023-01-30T08:46:53.468Z,15.10
2023-01-30T08:48:00.845Z,17.85
2023-01-30T08:49:09.543Z,17.98
2023-01-30T08:50:25.579Z,16.10
2023-01-30T08:51:42.369Z,18.75
2023-01-30T08:52:59.276Z,15.85
2023-01-30T08:54:04.556Z,15.15
2023-01-30T08:55:20.199Z,16.30
2023-01-30T08:56:22.326Z,16.83
2023-01-30T08:57:25.419Z,17.70
2023-01-30T08:58:27.633Z,15.82
2023-01-30T08:59:31.217Z,16.30
2023-01-30T09:00:34.589Z,15.77
2023-01-30T09:01:40.960Z,15.57
2023-01-30T09:02:46.577Z,14.77
2023-01-30T09:03:49.842Z,17.52
2023-01-30T09:04:51.828Z,15.85
2023-01-30T09:05:57.163Z,16.20
2023-01-30T09:06:59.222Z,17.92
2023-01-30T09:08:02.538Z,24.00
2023-01-30T09:09:11.747Z,14.23
2023-01-30T09:10:14.461Z,14.38
2023-01-30T09:11:17.773Z,14.25
2023-01-30T09:12:21.107Z,16.58
2023-01-30T09:13:23.415Z,13.52
2023-01-30T09:14:26.709Z,16.83
2023-01-30T09:15:29.820Z,14.23
2023-01-30T09:16:31.895Z,17.20
2023-01-30T09:17:35.146Z,14.77
2023-01-30T09:18:40.413Z,15.77
2023-01-30T09:19:43.579Z,15.48
2023-01-30T09:20:46.702Z,14.38
2023-01-30T09:21:50.428Z,13.52
2023-01-30T09:22:53.756Z,15.55
2023-01-30T09:23:59.898Z,13.30
2023-01-30T09:25:10.597Z,15.98
2023-01-30T09:26:13.886Z,15.00
2023-01-30T09:27:16.387Z,14.32
2023-01-30T09:28:22.907Z,13.85
2023-01-30T09:29:25.346Z,16.85
2023-01-30T09:30:28.974Z,15.07
2023-01-30T09:31:34.874Z,15.68
2023-01-30T09:32:38.308Z,17.95
2023-01-30T09:33:41.547Z,17.77
2023-01-30T09:34:43.625Z,12.95
2023-01-30T09:35:48.521Z,16.80
2023-01-30T09:36:51.638Z,15.60
2023-01-30T09:37:56.037Z,15.20
2023-01-30T09:38:59.171Z,18.13
2023-01-30T09:40:02.303Z,32.90
2023-01-30T09:41:39.027Z,14.70
2023-01-30T09:43:12.269Z,15.50
2023-01-30T09:44:49.961Z,15.20
2023-01-30T09:46:02.749Z,13.50
2023-01-30T09:47:18.097Z,16.08
2023-01-30T09:48:25.873Z,13.57
2023-01-30T09:49:39.021Z,16.10
2023-01-30T09:50:57.927Z,14.77
2023-01-30T09:52:15.881Z,15.40
2023-01-30T09:53:24.758Z,14.85
2023-01-30T09:54:32.048Z,12.25
2023-01-30T09:55:40.063Z,14.13
2023-01-30T09:56:44.660Z,15.20
2023-01-30T09:57:49.726Z,15.13
2023-01-30T09:58:56.850Z,15.55
2023-01-30T10:00:05.576Z,13.48
2023-01-30T10:01:22.555Z,15.13
2023-01-30T10:02:50.290Z,12.70
2023-01-30T10:04:10.592Z,13.90
2023-01-30T10:05:14.009Z,11.98
2023-01-30T10:06:18.046Z,13.02
2023-01-30T10:07:34.602Z,11.73
2023-01-30T10:08:50.819Z,13.88
2023-01-30T10:09:59.777Z,15.20
2023-01-30T10:11:11.061Z,12.52
2023-01-30T10:12:30.294Z,14.75
2023-01-30T10:13:55.580Z,12.88
2023-01-30T10:15:20.285Z,12.48
2023-01-30T10:16:28.660Z,14.63
2023-01-30T10:17:42.654Z,13.23
2023-01-30T10:19:05.947Z,12.07
2023-01-30T10:20:32.091Z,15.38
2023-01-30T10:21:47.725Z,11.60
2023-01-30T10:23:04.383Z,12.80
2023-01-30T10:24:32.076Z,14.60
2023-01-30T10:25:43.923Z,11.75
2023-01-30T10:26:47.065Z,11.95
2023-01-30T10:27:59.182Z,12.75
2023-01-30T10:29:09.986Z,12.15
2023-01-30T10:30:18.307Z,10.57
2023-01-30T10:31:26.732Z,18.08
2023-01-30T10:32:40.759Z,9.93
2023-01-30T10:33:59.179Z,10.90
2023-01-30T10:35:13.916Z,11.90
2023-01-30T10:36:24.599Z,12.27
2023-01-30T10:37:34.312Z,13.15
2023-01-30T10:38:45.591Z,9.77
2023-01-30T10:39:55.712Z,11.00
2023-01-30T10:41:05.423Z,9.68
2023-01-30T10:42:12.921Z,11.13
2023-01-30T10:43:26.332Z,10.43
2023-01-30T10:44:32.860Z,11.65
2023-01-30T10:45:44.316Z,11.38
2023-01-30T10:47:03.195Z,16.45
2023-01-30T10:48:43.179Z,8.68
2023-01-30T10:49:53.014Z,9.52
2023-01-30T10:51:01.161Z,9.57
2023-01-30T10:52:13.680Z,10.75
2023-01-30T10:53:22.825Z,8.00
2023-01-30T10:54:33.049Z,8.80
2023-01-30T10:55:43.130Z,11.13
2023-01-30T10:57:03.390Z,9.00
2023-01-30T10:58:35.961Z,8.38
2023-01-30T10:59:59.570Z,8.93
2023-01-30T11:01:08.236Z,12.35
2023-01-30T11:02:34.177Z,10.75
2023-01-30T11:03:45.889Z,7.82
2023-01-30T11:04:58.407Z,18.42
2023-01-30T11:06:08.998Z,6.22
2023-01-30T11:08:19.984Z,8.70
2023-01-30T11:10:26.546Z,10.30
2023-01-30T11:12:01.261Z,9.75
2023-01-30T11:13:27.107Z,8.13
2023-01-30T11:15:12.911Z,7.78
2023-01-30T11:16:23.528Z,6.10
2023-01-30T11:17:50.403Z,9.05
2023-01-30T11:19:23.006Z,9.40
2023-01-30T11:20:40.438Z,11.00
2023-01-30T11:22:10.579Z,8.38
2023-01-30T11:23:28.976Z,8.10
2023-01-30T11:24:39.396Z,7.03
2023-01-30T11:26:11.229Z,6.95
2023-01-30T11:27:32.306Z,6.80
2023-01-30T11:29:00.123Z,8.23
2023-01-30T11:30:17.926Z,9.25
2023-01-30T11:31:40.789Z,9.77
2023-01-30T11:32:49.614Z,7.70
2023-01-30T11:34:38.193Z,11.90
2023-01-30T11:35:54.022Z,6.60
2023-01-30T11:37:22.404Z,8.18
2023-01-30T11:38:45.029Z,11.75
2023-01-30T11:41:56.084Z,12.63
2023-01-30T11:42:22.864Z,21.65
2023-01-30T11:43:37.705Z,6.20
2023-01-30T11:44:45.569Z,6.63
2023-01-30T11:46:01.401Z,6.40
2023-01-30T11:47:25.784Z,6.68
2023-01-30T11:49:44.631Z,7.03
2023-01-30T11:50:49.637Z,7.53
2023-01-30T11:52:15.328Z,7.03
2023-01-30T11:53:43.427Z,7.80
2023-01-30T11:55:07.671Z,7.97
2023-01-30T11:56:27.492Z,6.45
2023-01-30T11:57:49.643Z,6.75
2023-01-30T12:01:22.708Z,6.90
2023-01-30T12:02:58.324Z,8.60
2023-01-30T12:04:29.635Z,7.30
2023-01-30T12:05:43.382Z,6.20
2023-01-30T12:07:12.208Z,7.03
2023-01-30T12:08:41.173Z,6.50
2023-01-30T12:09:45.735Z,7.72
2023-01-30T12:10:55.470Z,8.27
2023-01-30T12:12:02.350Z,5.13
2023-01-30T12:13:22.717Z,7.05
2023-01-30T12:14:40.853Z,6.95
2023-01-30T12:15:52.444Z,6.53
2023-01-30T12:17:09.432Z,7.18
2023-01-30T12:18:19.803Z,6.70
2023-01-30T12:19:35.261Z,6.07
2023-01-30T12:20:51.145Z,7.95
2023-01-30T12:22:05.490Z,7.60
2023-01-30T12:23:17.968Z,8.73
2023-01-30T12:24:38.829Z,8.80
2023-01-30T12:25:46.335Z,8.05
2023-01-30T12:27:06.835Z,8.35
2023-01-30T12:28:25.287Z,6.50
2023-01-30T12:29:41.016Z,6.65
2023-01-30T12:30:55.399Z,6.43
2023-01-30T12:34:24.324Z,7.65
2023-01-30T12:35:52.202Z,7.05
2023-01-30T12:37:08.966Z,7.47
2023-01-30T12:38:33.697Z,8.43
2023-01-30T12:39:59.440Z,9.13
2023-01-30T12:41:27.395Z,8.13
2023-01-30T12:43:14.241Z,9.65
2023-01-30T12:44:34.743Z,6.75
2023-01-30T12:45:48.569Z,7.15
2023-01-30T12:47:04.300Z,7.57
2023-01-30T12:48:43.877Z,7.80
2023-01-30T12:50:14.496Z,9.38
2023-01-30T12:51:34.324Z,7.50
2023-01-30T12:53:13.299Z,8.25
2023-01-30T12:54:40.726Z,8.55
2023-01-30T12:55:59.436Z,7.57
2023-01-30T12:57:16.771Z,7.47
2023-01-30T12:58:26.398Z,8.10
2023-01-30T12:59:47.471Z,6.63
2023-01-30T13:01:09.446Z,8.23
2023-01-30T13:02:44.389Z,8.45
2023-01-30T13:03:58.975Z,7.15
2023-01-30T13:05:22.540Z,9.88
2023-01-30T13:06:47.947Z,7.28
2023-01-30T13:08:20.173Z,8.43
2023-01-30T13:09:54.446Z,10.68
2023-01-30T13:11:10.272Z,8.93
2023-01-30T13:12:25.140Z,7.38
2023-01-30T13:13:43.195Z,9.25
2023-01-30T13:15:04.369Z,7.10
2023-01-30T13:16:17.878Z,8.00
2023-01-30T13:17:43.541Z,7.13
2023-01-30T13:19:00.974Z,5.97
2023-01-30T13:20:24.538Z,5.82
2023-01-30T13:21:34.864Z,8.43
2023-01-30T13:22:50.011Z,8.73
2023-01-30T13:24:13.736Z,7.53
2023-01-30T13:25:29.861Z,8.27
2023-01-30T13:26:37.878Z,8.05
2023-01-30T13:27:46.525Z,13.10
2023-01-30T13:28:56.053Z,6.07
2023-01-30T13:30:06.278Z,6.50
2023-01-30T13:31:19.947Z,9.13
2023-01-30T13:32:37.557Z,6.68
2023-01-30T13:33:57.605Z,7.57
2023-01-30T13:35:24.035Z,5.03
2023-01-30T13:36:45.566Z,10.57
2023-01-30T13:37:56.787Z,6.18
2023-01-30T13:39:12.975Z,6.35
2023-01-30T13:40:24.862Z,6.10
2023-01-30T13:41:46.377Z,5.45
2023-01-30T13:42:57.968Z,5.40
2023-01-30T13:44:24.660Z,5.20
2023-01-30T13:45:45.684Z,4.65
2023-01-30T13:46:59.521Z,7.85
2023-01-30T13:48:30.803Z,5.78
2023-01-30T13:50:02.766Z,4.72
2023-01-30T13:51:35.487Z,5.55
2023-01-30T13:52:55.462Z,7.50
2023-01-30T13:54:21.075Z,8.95
2023-01-30T13:55:37.379Z,9.45
2023-01-30T13:56:52.061Z,4.68
2023-01-30T13:58:15.384Z,5.65
2023-01-30T13:59:53.225Z,5.68
2023-01-30T14:01:08.738Z,6.30
2023-01-30T14:02:29.136Z,6.20
2023-01-30T14:03:40.236Z,5.40
2023-01-30T14:05:04.122Z,6.40
2023-01-30T14:06:34.570Z,5.55
2023-01-30T14:07:45.742Z,5.13
2023-01-30T14:09:07.572Z,10.02
2023-01-30T14:10:31.571Z,4.57
2023-01-30T14:11:42.130Z,4.20
2023-01-30T14:12:58.152Z,7.57
2023-01-30T14:14:26.650Z,7.32
2023-01-30T14:16:06.473Z,6.30
2023-01-30T14:17:19.794Z,4.45
2023-01-30T14:18:28.669Z,6.82
2023-01-30T14:19:45.179Z,8.88
2023-01-30T14:21:21.332Z,5.80
2023-01-30T14:22:43.296Z,5.60
2023-01-30T14:24:00.859Z,5.47
2023-01-30T14:25:53.576Z,6.22
2023-01-30T14:27:29.072Z,5.72
2023-01-30T14:28:53.502Z,4.55
2023-01-30T14:30:01.366Z,4.95
2023-01-30T14:31:06.089Z,6.40
2023-01-30T14:32:40.155Z,6.35
2023-01-30T14:33:53.334Z,4.65
2023-01-30T14:35:31.337Z,4.88
2023-01-30T14:36:40.915Z,4.80
2023-01-30T14:38:11.001Z,5.55
2023-01-30T14:39:49.447Z,5.10
2023-01-30T14:41:30.779Z,5.22
2023-01-30T14:42:40.649Z,5.32
2023-01-30T14:43:59.424Z,6.95
2023-01-30T14:45:19.535Z,6.18
2023-01-30T14:46:54.390Z,4.78
2023-01-30T14:48:32.159Z,5.53
2023-01-30T14:49:39.962Z,4.75
2023-01-30T14:52:44.840Z,5.60
2023-01-30T14:54:04.805Z,4.60
2023-01-30T14:55:20.675Z,5.40
2023-01-30T14:56:44.232Z,5.95
2023-01-30T14:57:58.115Z,6.80
2023-01-30T14:59:08.165Z,6.82
2023-01-30T15:00:21.312Z,7.40
2023-01-30T15:01:28.829Z,6.32
2023-01-30T15:02:47.989Z,6.63
2023-01-30T15:03:53.582Z,7.18
2023-01-30T15:05:09.914Z,5.90
2023-01-30T15:06:18.060Z,8.40
2023-01-30T15:07:26.456Z,7.70
2023-01-30T15:08:30.971Z,5.78
2023-01-30T15:09:38.986Z,5.68
2023-01-30T15:11:13.599Z,6.13
2023-01-30T15:12:50.553Z,4.63
2023-01-30T15:14:09.308Z,6.50
2023-01-30T15:15:26.557Z,7.80
2023-01-30T15:16:56.403Z,6.40
2023-01-30T15:18:42.973Z,6.05
2023-01-30T15:20:18.122Z,5.57
2023-01-30T15:21:44.354Z,7.40
2023-01-30T15:23:11.455Z,6.75
2023-01-30T15:24:48.049Z,6.65
2023-01-30T15:26:27.014Z,7.28
2023-01-30T15:27:44.107Z,14.10
2023-01-30T15:29:12.748Z,8.70
2023-01-30T15:30:24.557Z,7.70
2023-01-30T15:31:35.029Z,10.73
2023-01-30T15:32:49.971Z,6.93
2023-01-30T15:33:56.899Z,8.30
2023-01-30T15:35:03.542Z,8.60
2023-01-30T15:36:26.735Z,7.25
2023-01-30T15:37:48.137Z,5.45
2023-01-30T15:39:02.848Z,7.50
2023-01-30T15:40:27.862Z,7.13
2023-01-30T15:42:49.919Z,8.55
2023-01-30T15:44:25.817Z,7.90
2023-01-30T15:47:26.415Z,7.20
2023-01-30T15:48:53.315Z,7.75
2023-01-30T15:50:03.841Z,7.90
2023-01-30T15:51:13.328Z,6.60
2023-01-30T15:52:19.202Z,8.27
2023-01-30T15:53:31.090Z,7.93
2023-01-30T15:54:39.822Z,8.40
2023-01-30T15:55:45.936Z,7.05
2023-01-30T15:56:57.101Z,7.47
2023-01-30T15:58:11.631Z,9.48
2023-01-30T15:59:29.515Z,7.88
2023-01-30T16:00:46.393Z,9.77
2023-01-30T16:01:59.493Z,7.53
2023-01-30T16:03:14.800Z,8.05
2023-01-30T16:04:36.603Z,8.13
2023-01-30T16:06:09.892Z,9.50
2023-01-30T16:07:28.037Z,10.45
2023-01-30T16:08:36.436Z,12.20
2023-01-30T16:10:04.964Z,8.88
2023-01-30T16:11:33.792Z,8.45
2023-01-30T16:12:43.436Z,8.25
2023-01-30T16:13:49.840Z,9.90
2023-01-30T16:15:03.198Z,9.80
2023-01-30T16:16:24.269Z,10.65
2023-01-30T16:17:41.222Z,8.35
2023-01-30T16:18:56.546Z,9.27
2023-01-30T16:20:06.993Z,8.65
2023-01-30T16:21:22.783Z,8.07
2023-01-30T16:22:40.554Z,8.35
2023-01-30T16:23:58.412Z,10.38
2023-01-30T16:25:09.377Z,10.95
2023-01-30T16:26:18.676Z,10.90
2023-01-30T16:27:45.350Z,9.60
2023-01-30T16:29:04.544Z,10.38
2023-01-30T16:30:22.227Z,9.25
2023-01-30T16:31:46.261Z,9.70
2023-01-30T16:34:22.431Z,9.32
2023-01-30T16:35:50.254Z,8.82
2023-01-30T16:37:10.644Z,8.93
2023-01-30T16:38:39.013Z,10.27
2023-01-30T16:39:59.118Z,7.90
2023-01-30T16:41:10.050Z,8.80
2023-01-30T16:44:12.867Z,7.95
2023-01-30T16:46:06.764Z,8.32
2023-01-30T16:47:28.103Z,10.07
2023-01-30T16:48:39.222Z,8.73
2023-01-30T16:49:58.709Z,9.32
2023-01-30T16:51:22.709Z,9.30
2023-01-30T16:52:41.789Z,10.00
2023-01-30T16:54:01.110Z,9.85
2023-01-30T16:55:21.956Z,9.63
2023-01-30T16:56:27.994Z,9.40
2023-01-30T16:57:50.372Z,10.48
2023-01-30T16:59:03.051Z,9.38
2023-01-30T17:00:25.018Z,12.00
2023-01-30T17:01:59.228Z,7.90
2023-01-30T17:03:27.021Z,9.43
2023-01-30T17:04:46.131Z,10.05
2023-01-30T17:05:57.114Z,8.95
2023-01-30T17:07:06.815Z,11.95
2023-01-30T17:08:59.284Z,9.35
2023-01-30T17:10:08.751Z,10.52
2023-01-30T17:11:38.795Z,10.05
2023-01-30T17:12:54.615Z,10.00
2023-01-30T17:14:33.715Z,13.48
2023-01-30T17:15:46.228Z,10.60
2023-01-30T17:17:13.329Z,10.35
2023-01-30T17:18:21.953Z,11.02
2023-01-30T17:19:29.997Z,8.77
2023-01-30T17:20:51.160Z,9.65
2023-01-30T17:22:27.590Z,10.65
2023-01-30T17:23:41.348Z,10.05
2023-01-30T17:24:49.759Z,9.50
2023-01-30T17:26:02.002Z,10.95
2023-01-30T17:27:22.408Z,11.57
2023-01-30T17:28:39.238Z,10.90
2023-01-30T17:29:55.765Z,9.27
2023-01-30T17:30:59.022Z,9.63
2023-01-30T17:32:03.453Z,11.27
2023-01-30T17:33:15.943Z,9.63
2023-01-30T17:34:23.123Z,9.45
2023-01-30T17:35:29.229Z,10.35
2023-01-30T17:36:36.480Z,10.85
2023-01-30T17:37:44.034Z,9.93
2023-01-30T17:38:52.140Z,11.32
2023-01-30T17:39:54.530Z,8.82
2023-01-30T17:41:02.328Z,9.60
2023-01-30T17:42:07.982Z,10.23
2023-01-30T17:43:13.427Z,10.02
2023-01-30T17:44:20.016Z,11.07
2023-01-30T17:45:33.599Z,9.13
2023-01-30T17:46:42.569Z,9.80
2023-01-30T17:47:46.910Z,9.98
2023-01-30T17:48:51.451Z,10.18
2023-01-30T17:49:57.310Z,9.43
2023-01-30T17:51:06.809Z,10.15
2023-01-30T17:52:15.040Z,9.95
2023-01-30T17:53:18.720Z,10.40
2023-01-30T17:54:25.790Z,8.75
2023-01-30T17:55:32.859Z,10.00
2023-01-30T17:56:40.439Z,10.35
2023-01-30T17:57:48.721Z,9.82
2023-01-30T17:58:52.319Z,11.15
2023-01-30T17:59:55.454Z,10.70
2023-01-30T18:01:01.457Z,8.60
2023-01-30T18:02:05.388Z,11.88
2023-01-30T18:03:15.124Z,9.40
2023-01-30T18:04:20.103Z,10.55
2023-01-30T18:05:25.418Z,9.55
2023-01-30T18:06:30.306Z,10.38
2023-01-30T18:07:34.780Z,10.55
2023-01-30T18:08:37.253Z,8.57
2023-01-30T18:09:41.371Z,9.95
2023-01-30T18:10:44.895Z,10.85
2023-01-30T18:11:50.787Z,7.85
2023-01-30T18:12:53.335Z,9.05
2023-01-30T18:14:07.320Z,12.00
2023-01-30T18:15:13.371Z,8.90
2023-01-30T18:16:26.073Z,11.32
2023-01-30T18:17:32.167Z,9.50
2023-01-30T18:18:38.482Z,10.15
2023-01-30T18:19:44.935Z,7.80
2023-01-30T18:20:50.075Z,7.90
2023-01-30T18:21:58.500Z,11.55
2023-01-30T18:23:03.284Z,7.63
2023-01-30T18:24:08.454Z,8.23
2023-01-30T18:25:14.270Z,8.45
2023-01-30T18:26:19.520Z,9.48
2023-01-30T18:27:26.392Z,9.05
2023-01-30T18:28:33.357Z,10.50
2023-01-30T18:29:38.674Z,7.72
2023-01-30T18:30:43.550Z,9.68
2023-01-30T18:31:53.283Z,8.80
2023-01-30T18:32:56.533Z,9.00
2023-01-30T18:34:00.600Z,9.07
2023-01-30T18:35:05.777Z,10.07
2023-01-30T18:36:15.129Z,9.35
2023-01-30T18:37:20.908Z,11.18
2023-01-30T18:38:26.237Z,9.23
2023-01-30T18:39:33.619Z,11.02
2023-01-30T18:40:40.276Z,9.85
2023-01-30T18:41:46.413Z,10.10
2023-01-30T18:42:50.140Z,9.20
2023-01-30T18:43:56.780Z,9.77
2023-01-30T18:45:00.337Z,8.02
2023-01-30T18:46:06.549Z,9.00
2023-01-30T18:47:12.370Z,10.77
2023-01-30T18:48:18.293Z,7.95
2023-01-30T18:49:27.078Z,10.10
2023-01-30T18:50:33.609Z,8.02
2023-01-30T18:51:40.763Z,8.48
2023-01-30T18:52:44.640Z,10.27
2023-01-30T18:53:50.352Z,10.00
2023-01-30T18:55:00.892Z,10.82
2023-01-30T18:56:03.851Z,8.02
2023-01-30T18:57:07.428Z,8.95
2023-01-30T18:58:10.082Z,10.07
2023-01-30T18:59:14.080Z,8.13
2023-01-30T19:00:19.640Z,8.02
2023-01-30T19:01:26.000Z,8.43
2023-01-30T19:02:31.431Z,7.72
2023-01-30T19:03:44.591Z,8.88
2023-01-30T19:04:48.649Z,8.98
2023-01-30T19:05:54.168Z,9.57
2023-01-30T19:07:08.937Z,10.13
2023-01-30T19:08:15.907Z,8.15
2023-01-30T19:09:24.711Z,8.75
2023-01-30T19:10:33.609Z,8.10
2023-01-30T19:11:56.403Z,7.50
2023-01-30T19:13:17.718Z,7.45
2023-01-30T19:14:22.248Z,7.60
2023-01-30T19:15:26.197Z,10.05
2023-01-30T19:16:35.271Z,7.50
2023-01-30T19:17:45.291Z,8.40
2023-01-30T19:18:57.085Z,7.68
2023-01-30T19:20:04.064Z,7.10
2023-01-30T19:21:07.999Z,8.80
2023-01-30T19:22:11.243Z,9.20
2023-01-30T19:23:18.926Z,6.97
2023-01-30T19:24:26.705Z,8.80
2023-01-30T19:25:30.435Z,8.00
2023-01-30T19:26:36.921Z,8.98
2023-01-30T19:27:44.549Z,10.05
2023-01-30T19:28:52.713Z,7.97
2023-01-30T19:29:57.394Z,7.40
2023-01-30T19:31:06.584Z,10.35
2023-01-30T19:32:11.349Z,7.60
2023-01-30T19:33:16.079Z,8.15
2023-01-30T19:34:20.162Z,7.90
2023-01-30T19:35:24.860Z,9.32
2023-01-30T19:36:32.198Z,8.05
2023-01-30T19:37:36.642Z,7.45
2023-01-30T19:38:41.945Z,7.80
2023-01-30T19:39:46.118Z,7.70
2023-01-30T19:40:56.459Z,8.43
2023-01-30T19:42:03.647Z,7.20
2023-01-30T19:43:11.134Z,9.88
2023-01-30T19:44:17.375Z,8.40
2023-01-30T19:45:24.443Z,7.38
2023-01-30T19:46:33.891Z,6.57
2023-01-30T19:48:06.879Z,10.50
2023-01-30T19:49:54.357Z,8.10
2023-01-30T19:51:28.712Z,7.43
2023-01-30T19:52:41.257Z,6.38